• Join FlightAware (Why Join?)
  • Login
  • US Flag 
02:42PM EDT


 

Airport Tracker/Info


-or-


 

Live Flight TrackerFlight Track Log ✈ DAL6115 ✈ 23-Apr-2013 ✈ KJFK - KROC

Flight Track Log - Related Links

Times and Time Zones

All times are in EDT time to prevent confusion due to time zone crossing. See the DAL6115 flight status page for this flight to view local times or setup timezone preferences in your user account.

Time Position Orientation Groundspeed Altitude Reporting Facility
EDT Latitude Longitude Course Direction KTS MPH feet Rate Location/Type
10:10AM 40.6333 -73.8500 315° West 202 232 2,000  Level New York TRACON
10:11AM 40.5833 -73.8833 207° Southwest 240 276 4,200 2,340 Climbing New York TRACON
10:12AM 40.5667 -73.8167 108° East 240 276 6,700 2,460 Climbing New York TRACON
10:13AM 40.8904 -74.1316 315° West  Level FlightAware Approximate
10:13AM 40.6000 -73.7333 62° Northeast 241 277 9,400  Level New York TRACON
10:14AM 40.9586 -74.2205 316° Northwest  Level FlightAware Approximate
10:14AM 40.6333 -73.6500 62° Northeast 253 291 11,700  Level New York TRACON
10:15AM 41.0274 -74.3090 316° Northwest  Level FlightAware Approximate
10:15AM 40.7000 -73.6333 11° North 260 299 13,800  Level New York TRACON
10:16AM 41.0989 -74.3930 315° West  Level FlightAware Approximate
10:16AM 40.7667 -73.6167 11° North 280 322 15,700  Level New York TRACON
10:17AM 40.8500 -73.6500 343° North 295 339 17,100 600 Climbing New York TRACON
10:18AM 40.9000 -73.7500 304° West 350 403 17,000 -60 Descending New York TRACON
10:19AM 40.9500 -73.8833 296° West 388 447 17,000  Level New York TRACON
10:20AM 41.0000 -74.0000 300° West 394 453 17,000  Level New York TRACON
10:22AM 41.0764 -74.1978 297° West 398 458 17,000 360 Level New York Center
10:23AM 41.1306 -74.3356 298° West 392 451 18,000 1,080 Climbing New York Center
10:24AM 41.1753 -74.4428 299° West 392 451 19,200 960 Climbing New York Center
10:25AM 41.2233 -74.5694 297° West 387 445 20,000 360 Climbing New York Center
10:26AM 41.2944 -74.6894 308° West 394 453 20,000  Level New York Center
10:27AM 41.3636 -74.8039 309° West 400 460 20,000  Level New York Center
10:28AM 41.4325 -74.9133 310° West 400 460 20,000  Level New York Center
10:29AM 41.4975 -75.0225 309° West 390 449 20,000  Level New York Center
10:30AM 41.5622 -75.1319 308° West 385 443 20,000  Level New York Center
10:31AM 41.6033 -75.2539 294° West 374 430 20,000  Level New York Center
10:32AM 41.6400 -75.3842 291° West 369 425 20,000  Level New York Center
10:33AM 41.6767 -75.5117 291° West 369 425 20,000  Level New York Center
10:34AM 41.7133 -75.6392 291° West 369 425 20,000  Level New York Center
10:35AM 41.7475 -75.7669 290° West 369 425 20,000  Level New York Center
10:36AM 41.7836 -75.8947 291° West 369 425 20,000  Level New York Center
10:37AM 41.8197 -76.0228 291° West 374 430 20,000  Level New York Center
10:38AM 41.8556 -76.1508 291° West 374 430 20,000  Level New York Center
10:39AM 41.8914 -76.2792 291° West 374 430 20,000 -780 Level New York Center
10:40AM 41.9247 -76.4103 289° West 374 430 18,500 -1,560 Descending New York Center
10:41AM 41.9622 -76.5417 291° West 374 430 17,000 -1,320 Descending New York Center
10:42AM 41.9972 -76.6758 289° West 380 437 15,900 -540 Descending New York Center
10:43AM 42.0364 -76.8078 292° West 360 414 16,000  Climbing New York Center
10:44AM 42.0678 -76.9281 289° West 349 402 16,000  Level New York Center
10:45AM 42.1489 -77.0261 318° Northwest 335 386 16,000  Level Cleveland Center
10:46AM 42.2469 -77.0233 North 307 353 16,000  Level Cleveland Center
10:47AM 42.3361 -77.0156 North 331 381 16,000  Level Cleveland Center
10:48AM 42.4319 -77.0103 North 336 387 16,000  Level Cleveland Center
10:49AM 42.5281 -77.0161 357° North 341 392 16,000  Level Cleveland Center
10:50AM 42.5794 -77.0639 326° Northwest 337 388 16,000 -120 Level Cleveland Center
10:50AM 42.6033 -77.0881 323° Northwest 319 367 15,900 -840 Descending Cleveland Center
10:51AM 42.6528 -77.1444 320° Northwest 343 395 15,200 -1,140 Descending Cleveland Center
10:51AM 42.6786 -77.1714 323° Northwest 327 376 14,800 -1,680 Descending Cleveland Center
10:51AM 42.7219 -77.2228 319° Northwest 342 394 13,700 -1,800 Descending Cleveland Center
10:52AM 42.7519 -77.2494 327° Northwest 332 382 13,000 -1,920 Descending Cleveland Center
10:53AM 42.8114 -77.2942 331° Northwest 330 380 11,600 -1,800 Descending Cleveland Center
10:53AM 42.8308 -77.3103 329° Northwest 332 382 11,200 -1,740 Descending Cleveland Center
10:54AM 42.8906 -77.3581 330° Northwest 296 341 9,700 -1,740 Descending Cleveland Center
10:54AM 42.9031 -77.3633 343° North 313 360 9,500 -1,860 Descending Cleveland Center
10:55AM 42.9583 -77.4058 331° Northwest 280 322 8,000 -1,800 Descending Cleveland Center
10:55AM 42.9711 -77.4164 329° Northwest 299 344 7,700 -1,680 Descending Cleveland Center
10:56AM 43.0222 -77.4536 332° Northwest 272 313 6,300 -1,800 Descending Cleveland Center
10:56AM 43.0372 -77.4642 333° Northwest 281 323 5,900 -1,800 Descending Cleveland Center
10:57AM 43.0864 -77.5072 327° Northwest 262 302 4,500 -1,800 Descending Cleveland Center
10:57AM 43.0989 -77.5153 335° Northwest 269 310 4,100 -1,320 Descending Cleveland Center